createdAt,value
2022-10-21T00:01:46.698Z,0.00
2022-10-21T00:04:13.311Z,0.13
2022-10-21T00:06:39.972Z,0.00
2022-10-21T00:09:06.669Z,0.00
2022-10-21T00:11:33.321Z,0.00
2022-10-21T00:14:01.002Z,0.00
2022-10-21T00:16:27.649Z,0.38
2022-10-21T00:18:54.278Z,0.00
2022-10-21T00:21:22.102Z,0.00
2022-10-21T00:23:50.293Z,0.00
2022-10-21T00:26:18.422Z,0.00
2022-10-21T00:28:45.334Z,0.00
2022-10-21T00:31:13.971Z,0.00
2022-10-21T00:33:40.993Z,0.00
2022-10-21T00:36:14.787Z,0.00
2022-10-21T00:38:44.283Z,0.00
2022-10-21T00:41:11.739Z,0.00
2022-10-21T00:43:57.062Z,0.00
2022-10-21T00:46:45.065Z,0.00
2022-10-21T00:49:24.688Z,0.00
2022-10-21T00:51:56.537Z,0.00
2022-10-21T00:54:24.911Z,0.00
2022-10-21T00:56:54.654Z,0.00
2022-10-21T00:59:23.972Z,0.00
2022-10-21T01:01:50.953Z,0.00
2022-10-21T01:04:17.634Z,0.00
2022-10-21T01:06:45.367Z,26.40
2022-10-21T01:09:13.827Z,34.55
2022-10-21T01:11:46.565Z,19.20
2022-10-21T01:14:28.350Z,33.10
2022-10-21T01:17:26.623Z,28.80
2022-10-21T01:20:20.813Z,32.50
2022-10-21T01:22:56.777Z,25.90
2022-10-21T01:25:50.837Z,26.23
2022-10-21T01:28:35.778Z,37.53
2022-10-21T01:31:20.338Z,23.80
2022-10-21T01:33:59.776Z,30.05
2022-10-21T01:36:40.060Z,20.52
2022-10-21T01:39:27.098Z,22.58
2022-10-21T01:41:53.725Z,30.73
2022-10-21T01:44:30.139Z,21.25
2022-10-21T01:47:06.722Z,22.15
2022-10-21T01:49:41.347Z,18.42
2022-10-21T01:52:08.802Z,26.13
2022-10-21T01:54:39.949Z,27.65
2022-10-21T01:57:09.230Z,21.00
2022-10-21T01:59:37.562Z,23.92
2022-10-21T02:02:07.247Z,22.35
2022-10-21T02:04:36.253Z,22.73
2022-10-21T02:07:06.114Z,17.48
2022-10-21T02:12:05.664Z,24.13
2022-10-21T02:14:41.921Z,37.67
2022-10-21T02:17:12.862Z,16.80
2022-10-21T02:19:39.704Z,23.20
2022-10-21T02:22:10.187Z,15.70
2022-10-21T02:24:51.261Z,22.50
2022-10-21T02:27:18.606Z,20.15
2022-10-21T02:29:47.260Z,18.38
2022-10-21T02:32:13.804Z,25.40
2022-10-21T02:34:49.259Z,17.13
2022-10-21T02:40:16.409Z,16.20
2022-10-21T02:43:02.730Z,15.85
2022-10-21T02:45:29.384Z,24.83
2022-10-21T02:47:56.199Z,13.70
2022-10-21T02:50:22.816Z,17.05
2022-10-21T02:52:49.441Z,20.33
2022-10-21T02:55:16.383Z,14.05
2022-10-21T02:57:43.060Z,16.98
2022-10-21T03:00:10.284Z,12.13
2022-10-21T03:02:37.012Z,19.38
2022-10-21T03:05:04.049Z,15.02
2022-10-21T03:07:30.659Z,14.40
2022-10-21T03:09:57.283Z,12.85
2022-10-21T03:12:24.960Z,17.52
2022-10-21T03:14:51.575Z,10.90
2022-10-21T03:17:21.550Z,11.15
2022-10-21T03:19:51.014Z,8.30
2022-10-21T03:22:17.669Z,9.00
2022-10-21T03:24:44.333Z,22.50
2022-10-21T03:27:11.836Z,15.85
2022-10-21T03:29:38.430Z,14.00
2022-10-21T03:32:05.244Z,15.63
2022-10-21T03:34:31.857Z,10.63
2022-10-21T03:36:58.630Z,14.40
2022-10-21T03:39:25.247Z,17.58
2022-10-21T03:41:52.881Z,10.55
2022-10-21T03:44:19.502Z,10.02
2022-10-21T03:46:46.082Z,7.93
2022-10-21T03:49:21.162Z,9.13
2022-10-21T03:51:48.589Z,12.00
2022-10-21T03:54:15.485Z,5.85
2022-10-21T03:56:42.225Z,12.45
2022-10-21T03:59:09.125Z,13.50
2022-10-21T04:01:36.284Z,13.30
2022-10-21T04:04:03.523Z,15.13
2022-10-21T04:06:30.479Z,20.15
2022-10-21T04:08:57.129Z,15.20
2022-10-21T04:11:23.791Z,14.75
2022-10-21T04:13:50.585Z,17.55
2022-10-21T04:16:20.486Z,11.70
2022-10-21T04:18:47.778Z,10.00
2022-10-21T04:21:14.763Z,11.80
2022-10-21T04:23:41.842Z,13.70
2022-10-21T04:26:09.482Z,14.15
2022-10-21T04:28:36.546Z,13.93
2022-10-21T04:31:03.880Z,8.25
2022-10-21T04:33:30.554Z,11.63
2022-10-21T04:35:58.941Z,8.45
2022-10-21T04:38:26.670Z,8.30
2022-10-21T04:41:01.523Z,13.18
2022-10-21T04:43:29.027Z,15.82
2022-10-21T04:45:56.106Z,10.77
2022-10-21T04:48:23.344Z,18.48
2022-10-21T04:50:53.782Z,14.20
2022-10-21T04:53:21.752Z,14.52
2022-10-21T04:55:54.779Z,14.65
2022-10-21T04:58:22.391Z,21.10
2022-10-21T05:00:52.740Z,17.63
2022-10-21T05:03:20.338Z,14.85
2022-10-21T05:05:51.155Z,13.02
2022-10-21T05:08:20.161Z,18.77
2022-10-21T05:10:47.419Z,17.30
2022-10-21T05:13:14.613Z,15.70
2022-10-21T05:15:41.264Z,13.05
2022-10-21T05:18:07.917Z,20.23
2022-10-21T05:20:34.607Z,22.45
2022-10-21T05:23:01.251Z,30.40
2022-10-21T05:25:31.692Z,16.42
2022-10-21T05:28:01.905Z,29.80
2022-10-21T05:30:28.674Z,27.88
2022-10-21T05:32:55.350Z,27.20
2022-10-21T05:35:21.962Z,26.98
2022-10-21T05:37:48.629Z,26.45
2022-10-21T05:40:15.319Z,24.38
2022-10-21T05:42:42.017Z,28.85
2022-10-21T05:45:09.505Z,32.47
2022-10-21T05:47:36.118Z,32.00
2022-10-21T05:50:02.864Z,35.10
2022-10-21T05:52:29.475Z,23.20
2022-10-21T05:54:56.140Z,24.40
2022-10-21T05:57:22.821Z,24.33
2022-10-21T05:59:49.401Z,27.63
2022-10-21T06:02:16.115Z,31.30
2022-10-21T06:04:42.823Z,17.58
2022-10-21T06:07:09.701Z,18.73
2022-10-21T06:09:37.839Z,22.00
2022-10-21T06:12:04.788Z,16.65
2022-10-21T06:14:31.430Z,18.75
2022-10-21T06:16:58.115Z,17.35
2022-10-21T06:19:24.770Z,23.73
2022-10-21T06:21:51.442Z,21.85
2022-10-21T06:24:18.042Z,25.70
2022-10-21T06:26:44.649Z,19.17
2022-10-21T06:29:14.943Z,17.27
2022-10-21T06:31:41.552Z,19.42
2022-10-21T06:34:09.735Z,17.55
2022-10-21T06:36:38.291Z,25.67
2022-10-21T06:39:06.251Z,17.25
2022-10-21T06:41:32.885Z,15.80
2022-10-21T06:43:59.527Z,24.08
2022-10-21T06:46:26.795Z,12.98
2022-10-21T06:48:53.461Z,26.15
2022-10-21T06:51:23.380Z,31.00
2022-10-21T06:53:55.617Z,34.70
2022-10-21T06:56:23.154Z,27.10
2022-10-21T06:58:50.951Z,37.95
2022-10-21T07:01:34.427Z,18.98
2022-10-21T07:04:03.584Z,33.47
2022-10-21T07:06:30.634Z,28.83
2022-10-21T07:08:58.568Z,28.38
2022-10-21T07:11:26.627Z,25.20
2022-10-21T07:13:53.722Z,18.65
2022-10-21T07:16:27.093Z,28.75
2022-10-21T07:18:55.206Z,21.90
2022-10-21T07:21:24.876Z,33.63
2022-10-21T07:23:53.152Z,27.88
2022-10-21T07:26:21.511Z,26.13
2022-10-21T07:28:48.677Z,33.60
2022-10-21T07:31:19.977Z,19.08
2022-10-21T07:33:47.230Z,17.52
2022-10-21T07:36:18.886Z,29.10
2022-10-21T07:38:47.324Z,20.55
2022-10-21T07:41:23.094Z,27.05
2022-10-21T07:43:50.567Z,26.42
2022-10-21T07:46:18.278Z,24.80
2022-10-21T07:48:45.001Z,22.77
2022-10-21T07:51:15.566Z,28.48
2022-10-21T07:53:42.760Z,19.52
2022-10-21T07:56:19.091Z,27.92
2022-10-21T07:58:48.735Z,28.20
2022-10-21T08:01:17.118Z,24.73
2022-10-21T08:03:44.358Z,21.35
2022-10-21T08:06:13.685Z,20.30
2022-10-21T08:08:40.682Z,27.60
2022-10-21T08:11:08.246Z,19.40
2022-10-21T08:13:35.879Z,29.58
2022-10-21T08:16:06.731Z,19.48
2022-10-21T08:18:33.937Z,19.38
2022-10-21T08:21:03.396Z,36.83
2022-10-21T08:23:30.656Z,33.53
2022-10-21T08:26:00.698Z,36.85
2022-10-21T08:28:29.545Z,29.92
2022-10-21T08:31:15.206Z,35.28
2022-10-21T08:33:43.539Z,39.20
2022-10-21T08:36:19.645Z,34.30
2022-10-21T08:38:46.737Z,23.27
2022-10-21T08:41:26.875Z,37.88
2022-10-21T08:43:58.994Z,32.78
2022-10-21T08:46:31.893Z,40.63
2022-10-21T08:49:11.193Z,26.75
2022-10-21T08:51:44.865Z,32.70
2022-10-21T08:54:22.282Z,31.23
2022-10-21T08:56:55.105Z,34.97
2022-10-21T08:59:24.987Z,40.38
2022-10-21T09:02:03.551Z,44.63
2022-10-21T09:04:54.944Z,46.70
2022-10-21T09:07:30.917Z,31.73
2022-10-21T09:10:02.912Z,43.65
2022-10-21T09:12:40.543Z,38.65
2022-10-21T09:15:18.170Z,36.63
2022-10-21T09:18:12.862Z,38.78
2022-10-21T09:21:05.643Z,36.25
2022-10-21T09:23:47.606Z,40.38
2022-10-21T09:26:30.380Z,35.95
2022-10-21T09:28:57.631Z,28.98
2022-10-21T09:31:24.367Z,52.40
2022-10-21T09:33:58.495Z,40.20
2022-10-21T09:36:38.226Z,48.10
2022-10-21T09:39:22.616Z,41.58
2022-10-21T09:41:55.484Z,31.85
2022-10-21T09:44:25.997Z,45.85
2022-10-21T09:46:54.437Z,42.05
2022-10-21T09:50:05.400Z,50.33
2022-10-21T09:52:29.266Z,49.47
2022-10-21T09:54:56.421Z,34.70
2022-10-21T09:57:48.329Z,29.48
2022-10-21T10:00:15.140Z,33.55
2022-10-21T10:02:45.464Z,29.98
2022-10-21T10:05:36.197Z,35.75
2022-10-21T10:08:24.522Z,36.22
2022-10-21T10:10:51.209Z,30.92
2022-10-21T10:13:20.530Z,23.85
2022-10-21T10:15:47.270Z,20.48
2022-10-21T10:18:23.767Z,26.95
2022-10-21T10:21:13.922Z,33.22
2022-10-21T10:23:46.255Z,38.55
2022-10-21T10:26:34.035Z,31.77
2022-10-21T10:29:16.110Z,41.85
2022-10-21T10:32:03.009Z,40.28
2022-10-21T10:34:32.397Z,39.80
2022-10-21T10:37:25.328Z,52.05
2022-10-21T10:40:00.053Z,44.15
2022-10-21T10:42:33.195Z,60.03
2022-10-21T10:45:04.246Z,52.78
2022-10-21T10:47:39.984Z,58.40
2022-10-21T10:50:45.011Z,55.40
2022-10-21T10:53:37.115Z,47.33
2022-10-21T10:56:24.141Z,48.05
2022-10-21T10:59:01.865Z,57.72
2022-10-21T11:01:35.195Z,65.10
2022-10-21T11:04:15.385Z,57.05
2022-10-21T11:06:51.117Z,63.28
2022-10-21T11:09:22.612Z,58.60
2022-10-21T11:11:54.831Z,65.78
2022-10-21T11:14:22.838Z,57.03
2022-10-21T11:17:03.127Z,58.22
2022-10-21T11:19:41.139Z,44.60
2022-10-21T11:22:36.934Z,57.65
2022-10-21T11:25:18.661Z,54.05
2022-10-21T11:27:54.055Z,46.08
2022-10-21T11:30:22.236Z,55.88
2022-10-21T11:32:54.111Z,44.38
2022-10-21T11:35:29.599Z,38.17
2022-10-21T11:38:11.321Z,32.53
2022-10-21T11:40:41.963Z,47.63
2022-10-21T11:43:30.065Z,29.17
2022-10-21T11:46:19.795Z,28.80
2022-10-21T11:49:14.494Z,24.10
2022-10-21T11:51:53.287Z,23.17
2022-10-21T11:54:53.094Z,24.80
2022-10-21T11:57:30.160Z,29.25
2022-10-21T12:00:18.047Z,23.52
2022-10-21T12:03:26.142Z,26.15
2022-10-21T12:06:04.955Z,29.67
2022-10-21T12:08:43.137Z,31.92
2022-10-21T12:11:27.977Z,24.15
2022-10-21T12:14:00.147Z,24.83
2022-10-21T12:16:31.554Z,25.45
2022-10-21T12:19:05.065Z,20.38
2022-10-21T12:21:35.783Z,26.90
2022-10-21T12:24:39.550Z,20.88
2022-10-21T12:27:35.972Z,18.13
2022-10-21T12:30:41.697Z,36.45
2022-10-21T12:33:16.996Z,21.50
2022-10-21T12:36:09.185Z,22.85
2022-10-21T12:38:44.847Z,20.88
2022-10-21T12:41:24.201Z,19.42
2022-10-21T12:44:02.991Z,23.48
2022-10-21T12:46:39.155Z,23.33
2022-10-21T12:49:32.732Z,18.95
2022-10-21T12:52:02.283Z,23.92
2022-10-21T12:54:50.845Z,28.65
2022-10-21T12:57:43.033Z,18.90
2022-10-21T13:05:38.337Z,24.65
2022-10-21T13:08:20.347Z,29.83
2022-10-21T13:11:08.113Z,27.45
2022-10-21T13:13:37.537Z,31.48
2022-10-21T13:16:19.707Z,22.25
2022-10-21T13:18:52.697Z,25.75
2022-10-21T13:21:29.808Z,33.85
2022-10-21T13:24:06.630Z,40.33
2022-10-21T13:26:33.336Z,47.40
2022-10-21T13:29:18.197Z,37.00
2022-10-21T13:31:45.027Z,45.15
2022-10-21T13:34:29.831Z,36.33
2022-10-21T13:36:57.651Z,55.38
2022-10-21T13:39:34.697Z,53.03
2022-10-21T13:42:05.385Z,47.60
2022-10-21T13:44:36.982Z,51.00
2022-10-21T13:47:18.528Z,48.70
2022-10-21T13:49:52.779Z,52.80
2022-10-21T13:52:19.850Z,41.60
2022-10-21T13:54:46.589Z,34.92
2022-10-21T13:57:17.928Z,44.22
2022-10-21T13:59:44.557Z,37.97
2022-10-21T14:02:24.151Z,48.85
2022-10-21T14:04:51.823Z,47.00
2022-10-21T14:07:19.543Z,53.08
2022-10-21T14:09:52.317Z,61.75
2022-10-21T14:12:32.011Z,41.72
2022-10-21T14:15:06.455Z,54.78
2022-10-21T14:17:34.433Z,53.35
2022-10-21T14:20:15.536Z,59.08
2022-10-21T14:22:48.888Z,47.63
2022-10-21T14:25:16.841Z,58.90
2022-10-21T14:27:47.167Z,58.80
2022-10-21T14:30:26.671Z,44.20
2022-10-21T14:32:53.865Z,63.63
2022-10-21T14:35:20.396Z,47.63
2022-10-21T14:37:56.169Z,45.55
2022-10-21T14:40:57.926Z,41.35
2022-10-21T14:43:38.291Z,48.00
2022-10-21T14:46:06.622Z,46.05
2022-10-21T14:48:56.157Z,52.72
2022-10-21T14:51:23.421Z,71.97
2022-10-21T14:54:02.058Z,72.22
2022-10-21T14:56:35.330Z,61.33
2022-10-21T14:59:23.994Z,39.60
2022-10-21T15:01:51.142Z,59.38
2022-10-21T15:04:39.495Z,57.55
2022-10-21T15:07:30.576Z,49.60
2022-10-21T15:10:03.346Z,43.85
2022-10-21T15:12:39.352Z,51.97
2022-10-21T15:15:42.290Z,52.38
2022-10-21T15:21:07.373Z,44.28
2022-10-21T15:23:56.745Z,53.53
2022-10-21T15:26:34.510Z,61.17
2022-10-21T15:29:11.175Z,40.15
2022-10-21T15:31:37.817Z,44.08
2022-10-21T15:34:06.097Z,60.78
2022-10-21T15:36:32.726Z,51.20
2022-10-21T15:38:59.354Z,56.92
2022-10-21T15:41:28.720Z,57.35
2022-10-21T15:44:17.279Z,59.88
